createdAt,value
2018-09-24T00:00:11.885Z,65.8
2018-09-24T00:00:59.811Z,65.8
2018-09-24T00:01:49.326Z,65.8
2018-09-24T00:02:39.968Z,65.8
2018-09-24T00:03:30.024Z,65.8
2018-09-24T00:04:20.089Z,65.8
2018-09-24T00:05:09.851Z,65.8
2018-09-24T00:06:00.215Z,65.8
2018-09-24T00:06:50.261Z,65.8
2018-09-24T00:07:40.407Z,65.8
2018-09-24T00:08:30.443Z,65.8
2018-09-24T00:09:20.189Z,65.8
2018-09-24T00:10:10.790Z,65.8
2018-09-24T00:11:00.597Z,65.8
2018-09-24T00:11:50.660Z,65.7
2018-09-24T00:12:40.699Z,65.7
2018-09-24T00:13:30.180Z,65.7
2018-09-24T00:14:20.505Z,65.7
2018-09-24T00:15:10.930Z,65.7
2018-09-24T00:16:00.965Z,65.7
2018-09-24T00:16:50.743Z,65.6
2018-09-24T00:17:40.821Z,65.6
2018-09-24T00:18:31.437Z,65.6
2018-09-24T00:19:20.917Z,65.6
2018-09-24T00:20:11.267Z,65.6
2018-09-24T00:21:01.072Z,65.6
2018-09-24T00:21:50.867Z,65.6
2018-09-24T00:22:41.180Z,65.6
2018-09-24T00:23:31.521Z,65.6
2018-09-24T00:24:21.588Z,65.6
2018-09-24T00:25:11.372Z,65.6
2018-09-24T00:26:01.974Z,65.6
2018-09-24T00:26:51.503Z,65.6
2018-09-24T00:27:41.871Z,65.5
2018-09-24T00:28:32.467Z,65.5
2018-09-24T00:29:21.684Z,65.5
2018-09-24T00:30:11.749Z,65.5
2018-09-24T00:31:02.157Z,65.5
2018-09-24T00:31:51.589Z,65.5
2018-09-24T00:32:42.214Z,65.5
2018-09-24T00:33:31.551Z,65.4
2018-09-24T00:34:22.236Z,65.4
2018-09-24T00:35:12.234Z,65.4
2018-09-24T00:36:03.031Z,65.4
2018-09-24T00:36:52.355Z,65.4
2018-09-24T00:55:58.501Z,65.2
2018-09-24T00:56:47.993Z,65.2
2018-09-24T00:57:39.147Z,65.2
2018-09-24T00:58:28.672Z,65.2
2018-09-24T00:59:19.018Z,65.2
2018-09-24T01:00:09.064Z,65.2
2018-09-24T01:00:58.858Z,65.2
2018-09-24T01:01:48.894Z,65.2
2018-09-24T01:02:39.264Z,65.1
2018-09-24T01:03:29.601Z,65.1
2018-09-24T01:04:19.106Z,65.1
2018-09-24T01:05:08.874Z,65.1
2018-09-24T01:05:59.502Z,65.1
2018-09-24T01:06:49.270Z,65.1
2018-09-24T01:07:39.649Z,65.1
2018-09-24T01:08:29.402Z,65.1
2018-09-24T01:09:19.154Z,65.1
2018-09-24T01:10:09.253Z,65.1
2018-09-24T01:10:59.929Z,65
2018-09-24T01:11:49.950Z,65
2018-09-24T01:12:39.456Z,65
2018-09-24T01:13:29.776Z,65
2018-09-24T01:14:19.633Z,65
2018-09-24T01:15:10.199Z,65
2018-09-24T01:16:00.252Z,65
2018-09-24T01:16:50.284Z,65
2018-09-24T01:17:40.406Z,65
2018-09-24T01:18:30.183Z,64.9
2018-09-24T01:19:20.211Z,64.9
2018-09-24T01:20:10.039Z,64.9
2018-09-24T01:21:00.640Z,64.9
2018-09-24T01:21:50.425Z,64.9
2018-09-24T01:22:40.755Z,64.9
2018-09-24T01:23:30.548Z,64.9
2018-09-24T01:24:20.067Z,64.9
2018-09-24T01:25:10.679Z,64.9
2018-09-24T01:26:01.073Z,64.9
2018-09-24T01:26:50.565Z,64.9
2018-09-24T01:27:40.848Z,64.9
2018-09-24T01:28:30.668Z,64.9
2018-09-24T01:29:20.993Z,64.8
2018-09-24T01:30:10.778Z,64.8
2018-09-24T01:31:01.397Z,64.8
2018-09-24T01:31:51.450Z,64.8
2018-09-24T01:32:41.258Z,64.8
2018-09-24T01:33:31.328Z,64.8
2018-09-24T01:34:20.791Z,64.8
2018-09-24T01:35:10.592Z,64.8
2018-09-24T01:36:01.507Z,64.8
2018-09-24T01:36:51.534Z,64.8
2018-09-24T01:37:41.882Z,64.8
2018-09-24T01:38:31.680Z,64.8
2018-09-24T01:39:21.475Z,64.7
2018-09-24T01:40:11.544Z,64.7
2018-09-24T01:41:02.167Z,64.7
2018-09-24T01:41:51.992Z,64.7
2018-09-24T01:42:41.679Z,64.7
2018-09-24T01:43:32.335Z,64.7
2018-09-24T01:44:22.440Z,64.7
2018-09-24T01:45:12.193Z,64.7
2018-09-24T01:46:02.252Z,64.6
2018-09-24T01:46:52.317Z,64.6
2018-09-24T01:47:42.359Z,64.6
2018-09-24T01:48:32.463Z,64.6
2018-09-24T01:49:22.773Z,64.6
2018-09-24T01:50:13.104Z,64.6
2018-09-24T01:51:02.909Z,64.6
2018-09-24T01:51:52.697Z,64.6
2018-09-24T01:52:43.029Z,64.6
2018-09-24T01:53:32.537Z,64.6
2018-09-24T01:54:23.178Z,64.6
2018-09-24T01:55:12.966Z,64.5
2018-09-24T01:56:03.279Z,64.5
2018-09-24T01:56:53.087Z,64.5
2018-09-24T01:57:43.123Z,64.5
2018-09-24T01:58:33.493Z,64.5
2018-09-24T01:59:22.700Z,64.5
2018-09-24T02:00:13.601Z,64.5
2018-09-24T02:01:03.371Z,64.5
2018-09-24T02:01:53.746Z,64.4
2018-09-24T02:02:43.891Z,64.4
2018-09-24T02:03:33.859Z,64.4
2018-09-24T02:04:23.350Z,64.4
2018-09-24T02:05:14.216Z,64.4
2018-09-24T02:06:04.058Z,64.4
2018-09-24T02:06:54.108Z,64.4
2018-09-24T02:07:43.890Z,64.4
2018-09-24T02:08:33.933Z,64.4
2018-09-24T02:09:24.020Z,64.4
2018-09-24T02:10:13.777Z,64.4
2018-09-24T02:11:04.158Z,64.4
2018-09-24T02:11:54.500Z,64.3
2018-09-24T02:12:44.212Z,64.3
2018-09-24T02:13:34.596Z,64.3
2018-09-24T02:14:24.925Z,64.3
2018-09-24T02:15:14.148Z,64.3
2018-09-24T02:16:04.518Z,64.3
2018-09-24T02:16:54.863Z,64.3
2018-09-24T02:17:44.972Z,64.3
2018-09-24T02:18:35.795Z,64.3
2018-09-24T02:19:25.040Z,64.3
2018-09-24T02:20:14.821Z,64.3
2018-09-24T02:21:05.172Z,64.3
2018-09-24T02:21:55.247Z,64.3
2018-09-24T02:22:44.761Z,64.3
2018-09-24T02:23:34.787Z,64.2
2018-09-24T02:24:25.694Z,64.2
2018-09-24T02:25:14.914Z,64.2
2018-09-24T02:26:05.272Z,64.2
2018-09-24T02:26:55.337Z,64.2
2018-09-24T02:27:45.724Z,64.1
2018-09-24T02:28:35.747Z,64.1
2018-09-24T02:29:25.776Z,64.1
2018-09-24T02:30:15.873Z,64.1
2018-09-24T02:31:05.691Z,64.1
2018-09-24T02:31:55.736Z,64.1
2018-09-24T02:32:46.059Z,64.1
2018-09-24T02:33:35.839Z,64.1
2018-09-24T02:34:26.186Z,64.1
2018-09-24T02:35:15.695Z,64.1
2018-09-24T02:36:06.051Z,64.1
2018-09-24T02:36:56.121Z,64.1
2018-09-24T02:37:46.479Z,64
2018-09-24T02:38:35.938Z,64.1
2018-09-24T02:39:26.578Z,64
2018-09-24T02:40:16.606Z,64
2018-09-24T02:41:06.686Z,64
2018-09-24T02:41:56.776Z,64
2018-09-24T02:42:46.828Z,64
2018-09-24T02:43:36.876Z,64
2018-09-24T02:44:27.019Z,63.9
2018-09-24T02:45:17.046Z,63.9
2018-09-24T02:46:06.780Z,63.9
2018-09-24T02:46:57.110Z,63.9
2018-09-24T02:47:47.203Z,63.9
2018-09-24T02:48:36.951Z,63.9
2018-09-24T02:49:27.580Z,63.9
2018-09-24T02:50:17.133Z,63.9
2018-09-24T02:51:06.898Z,63.9
2018-09-24T02:51:57.244Z,63.9
2018-09-24T02:52:47.590Z,63.9
2018-09-24T02:53:36.782Z,63.9
2018-09-24T02:54:27.410Z,63.9
2018-09-24T02:55:16.648Z,63.9
2018-09-24T02:56:07.843Z,63.8
2018-09-24T02:56:58.123Z,63.8
2018-09-24T02:57:47.962Z,63.8
2018-09-24T02:58:38.045Z,63.8
2018-09-24T02:59:28.054Z,63.8
2018-09-24T03:00:17.848Z,63.8
2018-09-24T03:01:08.107Z,63.8
2018-09-24T03:01:58.305Z,63.8
2018-09-24T03:02:48.141Z,63.8
2018-09-24T03:03:38.111Z,63.8
2018-09-24T03:04:28.460Z,63.8
2018-09-24T03:05:18.527Z,63.8
2018-09-24T03:06:08.598Z,63.8
2018-09-24T03:06:58.341Z,63.8
2018-09-24T03:07:48.702Z,63.7
2018-09-24T03:08:38.825Z,63.7
2018-09-24T03:09:29.151Z,63.7
2018-09-24T03:10:18.912Z,63.7
2018-09-24T03:11:08.667Z,63.7
2018-09-24T03:11:58.177Z,63.6
2018-09-24T03:12:48.832Z,63.6
2018-09-24T03:13:38.863Z,63.6
2018-09-24T03:14:29.484Z,63.6
2018-09-24T03:15:19.275Z,63.6
2018-09-24T03:16:09.348Z,63.6
2018-09-24T03:16:59.399Z,63.6
2018-09-24T03:17:49.504Z,63.6
2018-09-24T03:18:39.532Z,63.6
2018-09-24T03:19:29.349Z,63.6
2018-09-24T03:20:19.089Z,63.6
2018-09-24T03:21:09.709Z,63.6
2018-09-24T03:21:59.786Z,63.6
2018-09-24T03:22:49.001Z,63.5
2018-09-24T03:23:40.151Z,63.5
2018-09-24T03:24:29.658Z,63.5
2018-09-24T03:25:20.986Z,63.5
2018-09-24T03:26:10.675Z,63.5
2018-09-24T03:27:00.189Z,63.5
2018-09-24T03:27:49.983Z,63.4
2018-09-24T03:28:40.006Z,63.4
2018-09-24T03:29:29.779Z,63.4
2018-09-24T03:30:20.721Z,63.4
2018-09-24T03:31:10.211Z,63.4
2018-09-24T03:32:00.285Z,63.4
2018-09-24T03:32:50.305Z,63.4
2018-09-24T03:33:40.435Z,63.4
2018-09-24T03:34:30.701Z,63.4
2018-09-24T03:35:20.831Z,63.4
2018-09-24T03:36:09.691Z,63.4
2018-09-24T03:37:00.908Z,63.4
2018-09-24T03:37:50.955Z,63.4
2018-09-24T03:38:41.038Z,63.4
2018-09-24T03:39:31.115Z,63.4
2018-09-24T03:40:21.170Z,63.3
2018-09-24T03:41:10.952Z,63.3
2018-09-24T03:42:01.882Z,63.3
2018-09-24T03:42:51.327Z,63.3
2018-09-24T03:43:41.415Z,63.3
2018-09-24T03:44:30.911Z,63.3
2018-09-24T03:45:21.306Z,63.3
2018-09-24T03:46:11.040Z,63.3
2018-09-24T03:47:01.385Z,63.3
2018-09-24T03:47:51.429Z,63.3
2018-09-24T03:48:41.509Z,63.3
2018-09-24T03:49:31.558Z,63.3
2018-09-24T03:50:21.916Z,63.2
2018-09-24T03:51:11.694Z,63.2
2018-09-24T03:52:02.036Z,63.2
2018-09-24T03:52:51.224Z,63.2
2018-09-24T03:53:42.182Z,63.2
2018-09-24T03:54:31.940Z,63.1
2018-09-24T03:55:22.592Z,63.1
2018-09-24T03:56:12.314Z,63.1
2018-09-24T03:57:02.104Z,63.1
2018-09-24T03:57:51.911Z,63.1
2018-09-24T03:58:42.253Z,63.1
2018-09-24T03:59:32.010Z,63.1
2018-09-24T04:00:22.376Z,63.1
2018-09-24T04:01:12.166Z,63.1
2018-09-24T04:02:02.535Z,63.1
2018-09-24T04:02:52.849Z,63.1
2018-09-24T04:03:42.928Z,63.1
2018-09-24T04:04:32.429Z,63.1
2018-09-24T04:05:23.073Z,63
2018-09-24T04:06:13.125Z,63
2018-09-24T04:07:02.636Z,63
2018-09-24T04:07:53.215Z,63
2018-09-24T04:08:43.027Z,63
2018-09-24T04:09:33.711Z,63
2018-09-24T04:10:22.865Z,63
2018-09-24T04:11:13.479Z,62.9
2018-09-24T04:12:02.967Z,63
2018-09-24T04:12:53.625Z,62.9
2018-09-24T04:13:43.088Z,62.9
2018-09-24T04:14:33.755Z,62.9
2018-09-24T04:15:23.217Z,62.9
2018-09-24T04:16:13.877Z,62.9
2018-09-24T04:17:03.656Z,62.9
2018-09-24T04:17:53.712Z,62.9
2018-09-24T04:18:43.788Z,62.9
2018-09-24T04:19:34.295Z,62.9
2018-09-24T04:20:24.170Z,62.9
2018-09-24T04:21:14.495Z,62.9
2018-09-24T04:22:03.471Z,62.9
2018-09-24T04:22:53.542Z,62.9
2018-09-24T04:23:43.854Z,62.8
2018-09-24T04:24:34.484Z,62.8
2018-09-24T04:25:24.344Z,62.8
2018-09-24T04:26:15.344Z,62.8
2018-09-24T04:27:04.390Z,62.8
2018-09-24T04:27:54.722Z,62.8
2018-09-24T04:28:44.530Z,62.8
2018-09-24T04:29:33.422Z,62.8
2018-09-24T04:30:24.337Z,62.8
2018-09-24T04:31:15.269Z,62.8
2018-09-24T04:32:05.051Z,62.8
2018-09-24T04:32:55.447Z,62.7
2018-09-24T04:33:45.216Z,62.7
2018-09-24T04:34:35.013Z,62.7
2018-09-24T04:35:25.357Z,62.7
2018-09-24T04:36:15.374Z,62.7
2018-09-24T04:37:05.157Z,62.7
2018-09-24T04:37:55.226Z,62.6
2018-09-24T04:38:45.284Z,62.6
2018-09-24T04:39:36.085Z,62.6
2018-09-24T04:40:25.101Z,62.6
2018-09-24T04:41:15.467Z,62.6
2018-09-24T04:42:05.941Z,62.6
2018-09-24T04:42:55.871Z,62.6
2018-09-24T04:43:45.977Z,62.6
2018-09-24T04:44:35.429Z,62.6
2018-09-24T04:45:26.071Z,62.6
2018-09-24T04:46:16.111Z,62.6
2018-09-24T04:47:06.408Z,62.6
2018-09-24T04:47:55.954Z,62.6
2018-09-24T04:48:46.008Z,62.5
2018-09-24T04:49:36.371Z,62.5
2018-09-24T04:50:26.428Z,62.5
2018-09-24T04:51:16.217Z,62.5
2018-09-24T04:52:07.026Z,62.5
2018-09-24T04:52:56.595Z,62.5
2018-09-24T04:53:46.383Z,62.4
2018-09-24T04:54:36.471Z,62.4
2018-09-24T04:55:26.508Z,62.4
2018-09-24T04:56:16.891Z,62.4
2018-09-24T04:57:07.453Z,62.4
2018-09-24T04:57:56.700Z,62.4
2018-09-24T04:58:46.720Z,62.4
2018-09-24T04:59:36.945Z,62.4
2018-09-24T05:00:26.938Z,62.4
2018-09-24T05:01:17.248Z,62.4
2018-09-24T05:02:07.273Z,62.4
2018-09-24T05:02:57.085Z,62.4
2018-09-24T05:03:47.143Z,62.4
2018-09-24T05:04:37.203Z,62.3
2018-09-24T05:05:27.549Z,62.4
2018-09-24T05:06:17.322Z,62.3
2018-09-24T05:07:08.186Z,62.3
2018-09-24T05:24:50.099Z,62.1
2018-09-24T05:25:39.586Z,62.1
2018-09-24T05:26:29.344Z,62.1
2018-09-24T05:27:19.912Z,62.1
2018-09-24T05:28:09.473Z,62.1
2018-09-24T05:28:59.816Z,62.1
2018-09-24T05:29:49.993Z,62.1
2018-09-24T05:30:39.938Z,62
2018-09-24T05:31:29.986Z,62
2018-09-24T05:32:20.289Z,62
2018-09-24T05:33:10.128Z,62
2018-09-24T05:33:59.903Z,62
2018-09-24T05:34:50.241Z,62
2018-09-24T05:35:40.021Z,61.9
2018-09-24T05:36:29.888Z,61.9
2018-09-24T05:37:20.452Z,61.9
2018-09-24T05:38:10.227Z,61.9
2018-09-24T05:39:00.008Z,61.9
2018-09-24T05:39:50.935Z,61.9
2018-09-24T05:40:40.687Z,61.9
2018-09-24T05:41:30.488Z,61.9
2018-09-24T05:42:20.522Z,61.9
2018-09-24T05:43:10.357Z,61.9
2018-09-24T05:44:00.932Z,61.9
2018-09-24T05:44:50.715Z,61.9
2018-09-24T05:45:40.753Z,61.9
2018-09-24T05:46:31.163Z,61.9
2018-09-24T05:47:20.614Z,61.8
2018-09-24T05:48:10.973Z,61.8
2018-09-24T05:49:00.766Z,61.8
2018-09-24T05:49:51.378Z,61.8
2018-09-24T05:50:41.299Z,61.8
2018-09-24T05:51:31.684Z,61.8
2018-09-24T05:52:22.627Z,61.8
2018-09-24T05:53:11.773Z,61.8
2018-09-24T05:54:02.178Z,61.8
2018-09-24T05:54:51.678Z,61.8
2018-09-24T05:55:43.436Z,61.7
2018-09-24T05:56:32.654Z,61.7
2018-09-24T05:57:21.977Z,61.7
2018-09-24T05:58:12.022Z,61.7
2018-09-24T05:59:01.833Z,61.7
2018-09-24T05:59:52.119Z,61.7
2018-09-24T06:00:42.731Z,61.7
2018-09-24T06:01:32.275Z,61.6
2018-09-24T06:02:22.334Z,61.6
2018-09-24T06:03:12.397Z,61.6
2018-09-24T06:04:02.198Z,61.6
2018-09-24T06:04:52.536Z,61.6
2018-09-24T06:05:43.377Z,61.6
2018-09-24T06:06:32.626Z,61.6
2018-09-24T06:07:22.388Z,61.6
2018-09-24T06:08:12.744Z,61.6
2018-09-24T06:09:02.828Z,61.6
2018-09-24T06:09:52.899Z,61.6
2018-09-24T06:10:43.206Z,61.6
2018-09-24T06:11:33.224Z,61.6
2018-09-24T06:12:23.626Z,61.5
2018-09-24T06:13:13.596Z,61.5
2018-09-24T06:14:03.716Z,61.5
2018-09-24T06:14:52.695Z,61.5
2018-09-24T06:15:43.381Z,61.5
2018-09-24T06:16:33.426Z,61.5
2018-09-24T06:17:23.448Z,61.4
2018-09-24T06:18:13.526Z,61.4
2018-09-24T06:19:04.148Z,61.4
2018-09-24T06:19:53.396Z,61.4
2018-09-24T06:20:43.597Z,61.4
2018-09-24T06:21:34.043Z,61.4
2018-09-24T06:22:23.310Z,61.4
2018-09-24T06:23:13.348Z,61.4
2018-09-24T06:24:03.955Z,61.4
2018-09-24T06:24:53.743Z,61.4
2018-09-24T06:25:44.367Z,61.4
2018-09-24T06:26:33.871Z,61.4
2018-09-24T06:27:23.915Z,61.4
2018-09-24T06:28:14.349Z,61.3
2018-09-24T06:29:04.078Z,61.4
2018-09-24T06:29:54.412Z,61.3
2018-09-24T06:30:44.455Z,61.3
2018-09-24T06:31:34.252Z,61.3
2018-09-24T06:32:24.325Z,61.3
2018-09-24T06:33:14.670Z,61.3
2018-09-24T06:34:04.467Z,61.3
2018-09-24T06:34:54.526Z,61.3
2018-09-24T06:35:44.585Z,61.3
2018-09-24T06:36:34.637Z,61.3
2018-09-24T06:37:24.135Z,61.2
2018-09-24T06:38:14.465Z,61.2
2018-09-24T06:39:05.117Z,61.2
2018-09-24T06:39:55.174Z,61.1
2018-09-24T06:40:45.214Z,61.2
2018-09-24T06:41:35.255Z,61.1
2018-09-24T06:42:25.393Z,61.1
2018-09-24T06:43:15.536Z,61.1
2018-09-24T06:44:04.985Z,61.1
2018-09-24T06:44:55.567Z,61.1
2018-09-24T06:45:45.689Z,61.1
2018-09-24T06:46:35.949Z,61.1
2018-09-24T06:47:26.059Z,61.1
2018-09-24T06:48:15.863Z,61.1
2018-09-24T06:49:05.567Z,61.1
2018-09-24T06:49:55.976Z,61.1
2018-09-24T06:50:45.747Z,61.1
2018-09-24T06:51:36.097Z,61.1
2018-09-24T06:52:25.929Z,61
2018-09-24T06:53:15.914Z,61
2018-09-24T06:54:06.049Z,61
2018-09-24T06:54:56.074Z,61
2018-09-24T06:55:45.827Z,61
2018-09-24T06:56:36.468Z,60.9
2018-09-24T06:57:26.511Z,60.9
2018-09-24T06:58:16.298Z,61
2018-09-24T06:59:06.659Z,60.9
2018-09-24T06:59:56.446Z,60.9
2018-09-24T07:00:46.241Z,60.9
2018-09-24T07:01:36.536Z,60.9
2018-09-24T07:02:26.943Z,60.9
2018-09-24T07:03:16.986Z,60.9
2018-09-24T07:04:07.004Z,60.9
2018-09-24T07:04:56.891Z,60.9
2018-09-24T07:05:47.126Z,60.9
2018-09-24T07:06:36.968Z,60.9
2018-09-24T07:07:27.283Z,60.8
2018-09-24T07:08:17.083Z,60.8
2018-09-24T07:09:07.403Z,60.8
2018-09-24T07:09:57.443Z,60.8
2018-09-24T07:10:47.506Z,60.8
2018-09-24T07:11:37.980Z,60.8
2018-09-24T07:12:27.970Z,60.8
2018-09-24T07:13:18.691Z,60.8
2018-09-24T07:14:08.100Z,60.8
2018-09-24T07:14:57.549Z,60.8
2018-09-24T07:15:47.889Z,60.8
2018-09-24T07:16:37.644Z,60.8
2018-09-24T07:17:28.027Z,60.8
2018-09-24T07:18:18.083Z,60.7
2018-09-24T07:19:07.858Z,60.7
2018-09-24T07:19:57.915Z,60.7
2018-09-24T07:20:48.265Z,60.7
2018-09-24T07:21:39.011Z,60.7
2018-09-24T07:22:28.380Z,60.7
2018-09-24T07:23:19.018Z,60.6
2018-09-24T07:24:07.466Z,60.6
2018-09-24T07:24:58.592Z,60.6
2018-09-24T07:25:48.683Z,60.6
2018-09-24T07:26:38.161Z,60.6
2018-09-24T07:27:29.057Z,60.6
2018-09-24T07:28:19.434Z,60.6
2018-09-24T07:29:08.415Z,60.6
2018-09-24T07:29:59.015Z,60.6
2018-09-24T07:30:48.832Z,60.6
2018-09-24T07:31:39.141Z,60.6
2018-09-24T07:32:28.884Z,60.6
2018-09-24T07:33:20.283Z,60.6
2018-09-24T07:34:09.400Z,60.5
2018-09-24T07:34:59.462Z,60.6
2018-09-24T07:35:49.222Z,60.5
2018-09-24T07:36:39.501Z,60.5
2018-09-24T07:37:29.564Z,60.5
2018-09-24T07:38:19.390Z,60.5
2018-09-24T07:39:09.369Z,60.5
2018-09-24T07:39:59.501Z,60.5
2018-09-24T07:40:49.319Z,60.5
2018-09-24T07:41:39.889Z,60.4
2018-09-24T07:42:29.942Z,60.4
2018-09-24T07:43:20.245Z,60.4
2018-09-24T07:44:10.383Z,60.4
2018-09-24T07:45:00.147Z,60.4
2018-09-24T07:45:49.426Z,60.4
2018-09-24T07:46:40.270Z,60.4
2018-09-24T07:47:30.023Z,60.4
2018-09-24T07:48:20.391Z,60.4
2018-09-24T07:49:10.705Z,60.4
2018-09-24T07:50:00.217Z,60.4
2018-09-24T07:50:50.337Z,60.3
2018-09-24T07:51:40.348Z,60.3
2018-09-24T07:52:30.695Z,60.3
2018-09-24T07:53:20.785Z,60.3
2018-09-24T07:54:10.843Z,60.3
2018-09-24T07:55:00.408Z,60.3
2018-09-24T07:55:50.447Z,60.3
2018-09-24T07:56:41.010Z,60.3
2018-09-24T07:57:30.833Z,60.3
2018-09-24T07:58:20.592Z,60.3
2018-09-24T07:59:10.734Z,60.3
2018-09-24T08:00:01.029Z,60.3
2018-09-24T08:00:51.269Z,60.3
2018-09-24T08:01:41.119Z,60.2
2018-09-24T08:02:30.901Z,60.3
2018-09-24T08:03:21.245Z,60.2
2018-09-24T08:04:11.318Z,60.2
2018-09-24T08:05:01.097Z,60.2
2018-09-24T08:05:51.732Z,60.2
2018-09-24T08:06:41.790Z,60.2
2018-09-24T08:07:32.468Z,60.2
2018-09-24T08:08:22.273Z,60.2
2018-09-24T08:09:11.750Z,60.1
2018-09-24T08:10:02.046Z,60.1
2018-09-24T08:10:52.342Z,60.1
2018-09-24T08:11:41.872Z,60.1
2018-09-24T08:12:31.686Z,60.1
2018-09-24T08:13:23.537Z,60.1
2018-09-24T08:14:12.141Z,60.1
2018-09-24T08:15:02.142Z,60.1
2018-09-24T08:15:52.499Z,60
2018-09-24T08:16:42.046Z,60
2018-09-24T08:17:32.349Z,60
2018-09-24T08:18:22.793Z,60
2018-09-24T08:19:12.748Z,59.9
2018-09-24T08:20:02.246Z,59.9
2018-09-24T08:20:52.635Z,59.9
2018-09-24T08:21:42.969Z,59.9
2018-09-24T08:22:33.004Z,59.9
2018-09-24T08:23:23.400Z,59.8
2018-09-24T08:24:13.143Z,59.8
2018-09-24T08:25:02.914Z,59.8
2018-09-24T08:25:53.543Z,59.8
2018-09-24T08:26:43.014Z,59.8
2018-09-24T08:27:32.528Z,59.7
2018-09-24T08:28:23.419Z,59.7
2018-09-24T08:29:12.925Z,59.6
2018-09-24T08:30:03.297Z,59.6
2018-09-24T08:30:53.350Z,59.6
2018-09-24T08:31:44.010Z,59.6
2018-09-24T08:32:33.792Z,59.6
2018-09-24T08:33:23.525Z,59.6
2018-09-24T08:34:13.880Z,59.6
2018-09-24T08:35:03.915Z,59.6
2018-09-24T08:35:53.727Z,59.6
2018-09-24T08:36:43.792Z,59.6
2018-09-24T08:37:33.872Z,59.6
2018-09-24T08:38:23.942Z,59.5
2018-09-24T08:39:13.747Z,59.5
2018-09-24T08:40:04.322Z,59.5
2018-09-24T08:40:54.402Z,59.5
2018-09-24T08:41:43.889Z,59.5
2018-09-24T08:42:34.249Z,59.4
2018-09-24T08:43:24.582Z,59.5
2018-09-24T08:44:15.679Z,59.4
2018-09-24T08:45:04.729Z,59.4
2018-09-24T08:45:54.560Z,59.4
2018-09-24T08:46:44.601Z,59.4
2018-09-24T08:47:34.354Z,59.3
2018-09-24T08:48:24.975Z,59.3
2018-09-24T08:49:14.751Z,59.3
2018-09-24T08:50:04.816Z,59.2
2018-09-24T08:50:55.184Z,59.1
2018-09-24T08:51:45.236Z,59.1
2018-09-24T08:52:35.279Z,59.1
2018-09-24T08:53:25.595Z,59
2018-09-24T08:54:15.444Z,59
2018-09-24T08:55:04.699Z,58.9
2018-09-24T08:55:55.571Z,58.9
2018-09-24T08:56:45.895Z,58.9
2018-09-24T08:57:35.671Z,58.9
2018-09-24T08:58:25.483Z,58.9
2018-09-24T08:59:15.564Z,59
2018-09-24T09:00:05.068Z,59
2018-09-24T09:00:55.365Z,59
2018-09-24T09:01:45.983Z,59.1
2018-09-24T09:02:36.174Z,59.1
2018-09-24T09:03:25.554Z,59.1
2018-09-24T09:04:16.183Z,59.1
2018-09-24T09:05:05.673Z,59.2
2018-09-24T09:05:56.305Z,59.3
2018-09-24T09:06:46.371Z,59.3
2018-09-24T09:07:36.432Z,59.4
2018-09-24T09:08:27.442Z,59.4
2018-09-24T09:09:16.284Z,59.4
2018-09-24T09:10:06.355Z,59.4
2018-09-24T09:10:56.668Z,59.5
2018-09-24T09:11:45.900Z,59.6
2018-09-24T09:12:36.829Z,59.6
2018-09-24T09:13:26.912Z,59.6
2018-09-24T09:14:16.963Z,59.7
2018-09-24T09:15:06.462Z,59.8
2018-09-24T09:15:57.377Z,59.8
2018-09-24T09:16:47.115Z,59.9
2018-09-24T09:17:37.202Z,59.9
2018-09-24T09:18:27.282Z,60
2018-09-24T09:19:17.325Z,60.1
2018-09-24T09:20:07.103Z,60.1
2018-09-24T09:20:57.476Z,60.1
2018-09-24T09:21:47.239Z,60.2
2018-09-24T09:22:37.585Z,60.3
2018-09-24T16:40:05.054Z,60.5
2018-09-24T16:40:54.321Z,60.5
2018-09-24T16:41:44.086Z,60.5
2018-09-24T16:42:34.441Z,60.6
2018-09-24T16:43:25.190Z,60.5
2018-09-24T16:44:14.569Z,60.5
2018-09-24T16:45:04.397Z,60.5
2018-09-24T16:45:54.440Z,60.5
2018-09-24T16:46:44.748Z,60.5
2018-09-24T16:47:35.018Z,60.5
2018-09-24T16:48:24.874Z,60.4
2018-09-24T16:49:14.388Z,60.5
2018-09-24T16:50:05.676Z,60.4
2018-09-24T16:50:55.080Z,60.4
2018-09-24T16:51:45.119Z,60.4
2018-09-24T16:52:34.617Z,60.4
2018-09-24T16:53:25.263Z,60.4
2018-09-24T16:54:15.020Z,60.4
2018-09-24T16:55:05.098Z,60.4
2018-09-24T16:55:55.435Z,60.4
2018-09-24T16:56:44.925Z,60.4
2018-09-24T16:57:35.568Z,60.4
2018-09-24T16:58:25.627Z,60.4
2018-09-24T16:59:15.673Z,60.4
2018-09-24T17:00:05.762Z,60.4
2018-09-24T17:00:56.125Z,60.4
2018-09-24T17:01:46.185Z,60.4
2018-09-24T17:02:35.111Z,60.3
2018-09-24T17:03:26.232Z,60.4
2018-09-24T17:04:15.517Z,60.3
2018-09-24T17:05:05.885Z,60.3
2018-09-24T17:05:56.452Z,60.3
2018-09-24T17:06:46.501Z,60.3
2018-09-24T17:07:35.759Z,60.3
2018-09-24T17:08:26.383Z,60.3
2018-09-24T17:09:16.442Z,60.3
2018-09-24T17:10:06.224Z,60.3
2018-09-24T17:10:56.007Z,60.3
2018-09-24T17:11:47.405Z,60.3
2018-09-24T17:12:36.431Z,60.3
2018-09-24T17:13:26.760Z,60.3
2018-09-24T17:14:16.820Z,60.3
2018-09-24T17:15:06.644Z,60.3
2018-09-24T17:15:56.396Z,60.3
2018-09-24T17:16:46.726Z,60.3
2018-09-24T17:17:36.777Z,60.2
2018-09-24T17:18:26.594Z,60.2
2018-09-24T17:19:17.208Z,60.2
2018-09-24T17:20:06.695Z,60.3
2018-09-24T17:20:57.286Z,60.2
2018-09-24T17:21:46.860Z,60.2
2018-09-24T17:22:37.478Z,60.2
2018-09-24T17:23:26.736Z,60.2
2018-09-24T17:24:17.041Z,60.2
2018-09-24T17:25:07.683Z,60.2
2018-09-24T17:25:57.454Z,60.1
2018-09-24T17:26:48.060Z,60.1
2018-09-24T17:27:37.836Z,60.1
2018-09-24T17:28:27.601Z,60.1
2018-09-24T17:29:18.726Z,60.1
2018-09-24T17:30:07.761Z,60.1
2018-09-24T17:30:58.078Z,60.1
2018-09-24T17:31:47.856Z,60.1
2018-09-24T17:32:37.958Z,60.1
2018-09-24T17:33:28.016Z,60.1
2018-09-24T17:34:17.763Z,60.1
2018-09-24T17:35:08.127Z,60.1
2018-09-24T17:35:58.465Z,60.1
2018-09-24T17:36:48.513Z,60.1
2018-09-24T17:37:38.306Z,60.1
2018-09-24T17:38:28.374Z,60.1
2018-09-24T17:39:18.167Z,60.1
2018-09-24T17:40:08.797Z,60.1
2018-09-24T17:40:58.864Z,60.1
2018-09-24T17:41:48.348Z,60
2018-09-24T17:42:39.021Z,60
2018-09-24T17:43:28.200Z,60
2018-09-24T17:44:18.819Z,60
2018-09-24T17:45:09.178Z,60
2018-09-24T17:45:59.573Z,60
2018-09-24T17:46:49.286Z,60
2018-09-24T17:47:39.352Z,59.9
2018-09-24T17:48:29.400Z,59.9
2018-09-24T17:49:19.191Z,59.9
2018-09-24T17:50:08.953Z,59.9
2018-09-24T17:50:59.602Z,59.9
2018-09-24T17:51:49.651Z,59.9
2018-09-24T17:52:39.489Z,59.9
2018-09-24T17:53:30.038Z,59.9
2018-09-24T17:54:19.860Z,59.9
2018-09-24T17:55:09.643Z,59.9
2018-09-24T17:55:59.383Z,59.9
2018-09-24T17:56:49.992Z,59.9
2018-09-24T17:57:40.107Z,59.9
2018-09-24T17:58:30.415Z,59.9
2018-09-24T17:59:19.947Z,59.9
2018-09-24T18:00:11.013Z,59.9
2018-09-24T18:01:00.350Z,59.9
2018-09-24T18:01:50.657Z,59.8
2018-09-24T18:02:40.177Z,59.9
2018-09-24T18:03:30.780Z,59.8
2018-09-24T18:04:20.310Z,59.8
2018-09-24T18:05:10.422Z,59.8
2018-09-24T18:06:00.694Z,59.8
2018-09-24T18:06:50.222Z,59.8
2018-09-24T18:07:40.854Z,59.8
2018-09-24T18:08:30.908Z,59.8
2018-09-24T18:09:20.969Z,59.8
2018-09-24T18:10:11.039Z,59.8
2018-09-24T18:11:01.095Z,59.8
2018-09-24T18:11:51.095Z,59.8
2018-09-24T18:12:41.229Z,59.8
2018-09-24T18:13:30.727Z,59.8
2018-09-24T18:14:21.361Z,59.8
2018-09-24T18:15:10.876Z,59.8
2018-09-24T18:16:00.627Z,59.8
2018-09-24T18:16:51.259Z,59.7
2018-09-24T18:17:42.366Z,59.7
2018-09-24T18:18:31.678Z,59.7
2018-09-24T18:19:21.691Z,59.7
2018-09-24T18:20:11.785Z,59.7
2018-09-24T18:21:01.874Z,59.7
2018-09-24T18:21:51.680Z,59.7
2018-09-24T18:22:41.711Z,59.7
2018-09-24T18:23:31.481Z,59.7
2018-09-24T18:24:22.366Z,59.6
2018-09-24T18:25:12.174Z,59.6
2018-09-24T18:26:02.256Z,59.6
2018-09-24T18:26:52.555Z,59.6
2018-09-24T18:27:41.503Z,59.6
2018-09-24T18:28:32.670Z,59.6
2018-09-24T18:29:22.205Z,59.6
2018-09-24T18:30:12.290Z,59.6
2018-09-24T18:31:02.602Z,59.6
2018-09-24T18:31:52.180Z,59.6
2018-09-24T18:32:42.174Z,59.6
2018-09-24T18:33:32.813Z,59.6
2018-09-24T18:34:22.846Z,59.6
2018-09-24T18:35:12.637Z,59.6
2018-09-24T18:36:02.711Z,59.6
2018-09-24T18:36:53.319Z,59.6
2018-09-24T18:37:44.010Z,59.6
2018-09-24T18:38:33.165Z,59.6
2018-09-24T18:39:22.959Z,59.5
2018-09-24T18:40:13.314Z,59.6
2018-09-24T18:41:03.529Z,59.5
2018-09-24T18:41:53.444Z,59.5
2018-09-24T18:42:43.796Z,59.5
2018-09-24T18:43:33.288Z,59.5
2018-09-24T18:44:24.578Z,59.5
2018-09-24T18:45:13.448Z,59.4
2018-09-24T18:46:03.747Z,59.5
2018-09-24T18:46:53.491Z,59.5
2018-09-24T18:47:43.926Z,59.5
2018-09-24T18:48:33.651Z,59.4
2018-09-24T18:49:23.706Z,59.4
2018-09-24T18:50:14.072Z,59.4
2018-09-24T18:51:04.133Z,59.4
2018-09-24T18:51:54.192Z,59.4
2018-09-24T18:52:44.261Z,59.4
2018-09-24T18:53:34.313Z,59.4
2018-09-24T18:54:24.365Z,59.4
2018-09-24T18:55:13.866Z,59.4
2018-09-24T18:56:04.530Z,59.4
2018-09-24T18:56:54.288Z,59.4
2018-09-24T18:57:45.178Z,59.4
2018-09-24T18:58:34.687Z,59.4
2018-09-24T18:59:24.485Z,59.4
2018-09-24T19:00:14.822Z,59.4
2018-09-24T19:01:05.272Z,59.4